sensor_id;sensor_type;location;lat;lon;timestamp;temperature;humidity
32664;DHT22;19847;48.670;9.242;2022-09-02T00:02:13;13.40;99.90
32664;DHT22;19847;48.670;9.242;2022-09-02T00:05:34;13.40;99.90
32664;DHT22;19847;48.670;9.242;2022-09-02T00:08:57;13.40;99.90
32664;DHT22;19847;48.670;9.242;2022-09-02T00:12:20;13.30;99.90
32664;DHT22;19847;48.670;9.242;2022-09-02T00:15:41;13.30;99.90
32664;DHT22;19847;48.670;9.242;2022-09-02T00:19:03;13.20;99.90
32664;DHT22;19847;48.670;9.242;2022-09-02T00:22:25;13.20;99.90
32664;DHT22;19847;48.670;9.242;2022-09-02T00:25:47;13.20;99.90
32664;DHT22;19847;48.670;9.242;2022-09-02T00:29:10;13.20;99.90
32664;DHT22;19847;48.670;9.242;2022-09-02T00:32:31;13.30;99.90
32664;DHT22;19847;48.670;9.242;2022-09-02T00:35:53;13.40;99.90
32664;DHT22;19847;48.670;9.242;2022-09-02T00:39:15;13.40;99.90
32664;DHT22;19847;48.670;9.242;2022-09-02T00:42:36;13.50;99.90
32664;DHT22;19847;48.670;9.242;2022-09-02T00:45:59;13.50;99.90
32664;DHT22;19847;48.670;9.242;2022-09-02T00:49:22;13.50;99.90
32664;DHT22;19847;48.670;9.242;2022-09-02T00:52:45;13.50;99.90
32664;DHT22;19847;48.670;9.242;2022-09-02T00:56:08;13.50;99.90
32664;DHT22;19847;48.670;9.242;2022-09-02T00:59:34;13.40;99.90
32664;DHT22;19847;48.670;9.242;2022-09-02T01:03:00;13.40;99.90
32664;DHT22;19847;48.670;9.242;2022-09-02T01:06:23;13.40;99.90
32664;DHT22;19847;48.670;9.242;2022-09-02T01:09:45;13.40;99.90
32664;DHT22;19847;48.670;9.242;2022-09-02T01:13:08;13.30;99.90
32664;DHT22;19847;48.670;9.242;2022-09-02T01:16:32;13.30;99.90
32664;DHT22;19847;48.670;9.242;2022-09-02T01:19:58;13.20;99.90
32664;DHT22;19847;48.670;9.242;2022-09-02T01:23:22;13.10;99.90
32664;DHT22;19847;48.670;9.242;2022-09-02T01:26:45;13.00;99.90
32664;DHT22;19847;48.670;9.242;2022-09-02T01:30:08;12.90;99.90
32664;DHT22;19847;48.670;9.242;2022-09-02T01:33:30;12.90;99.90
32664;DHT22;19847;48.670;9.242;2022-09-02T01:36:52;12.80;99.90
32664;DHT22;19847;48.670;9.242;2022-09-02T01:40:15;12.80;99.90
32664;DHT22;19847;48.670;9.242;2022-09-02T01:43:37;12.80;99.90
32664;DHT22;19847;48.670;9.242;2022-09-02T01:46:59;12.80;99.90
32664;DHT22;19847;48.670;9.242;2022-09-02T01:50:21;12.80;99.90
32664;DHT22;19847;48.670;9.242;2022-09-02T01:53:43;12.70;99.90
32664;DHT22;19847;48.670;9.242;2022-09-02T01:57:06;12.70;99.90
32664;DHT22;19847;48.670;9.242;2022-09-02T02:00:27;12.70;99.90
32664;DHT22;19847;48.670;9.242;2022-09-02T02:03:49;12.70;99.90
32664;DHT22;19847;48.670;9.242;2022-09-02T02:07:11;12.80;99.90
32664;DHT22;19847;48.670;9.242;2022-09-02T02:10:33;12.90;99.90
32664;DHT22;19847;48.670;9.242;2022-09-02T02:13:56;13.10;99.90
32664;DHT22;19847;48.670;9.242;2022-09-02T02:17:18;13.10;99.90
32664;DHT22;19847;48.670;9.242;2022-09-02T02:20:39;13.00;99.90
32664;DHT22;19847;48.670;9.242;2022-09-02T02:24:05;13.00;99.90
32664;DHT22;19847;48.670;9.242;2022-09-02T02:27:27;12.90;99.90
32664;DHT22;19847;48.670;9.242;2022-09-02T02:30:50;12.80;99.90
32664;DHT22;19847;48.670;9.242;2022-09-02T02:34:11;12.70;99.90
32664;DHT22;19847;48.670;9.242;2022-09-02T02:37:33;12.50;99.90
32664;DHT22;19847;48.670;9.242;2022-09-02T02:40:55;12.40;99.90
32664;DHT22;19847;48.670;9.242;2022-09-02T02:44:17;12.30;99.90
32664;DHT22;19847;48.670;9.242;2022-09-02T02:47:40;12.20;99.90
32664;DHT22;19847;48.670;9.242;2022-09-02T02:51:03;12.20;99.90
32664;DHT22;19847;48.670;9.242;2022-09-02T02:54:24;12.10;99.90
32664;DHT22;19847;48.670;9.242;2022-09-02T02:57:55;12.10;99.90
32664;DHT22;19847;48.670;9.242;2022-09-02T03:01:17;12.10;99.90
32664;DHT22;19847;48.670;9.242;2022-09-02T03:04:40;12.00;99.90
32664;DHT22;19847;48.670;9.242;2022-09-02T03:08:02;12.00;99.90
32664;DHT22;19847;48.670;9.242;2022-09-02T03:11:23;12.00;99.90
32664;DHT22;19847;48.670;9.242;2022-09-02T03:14:45;12.00;99.90
32664;DHT22;19847;48.670;9.242;2022-09-02T03:18:07;11.90;99.90
32664;DHT22;19847;48.670;9.242;2022-09-02T03:21:30;11.90;99.90
32664;DHT22;19847;48.670;9.242;2022-09-02T03:24:59;11.90;99.90
32664;DHT22;19847;48.670;9.242;2022-09-02T03:28:21;11.90;99.90
32664;DHT22;19847;48.670;9.242;2022-09-02T03:31:43;11.80;99.90
32664;DHT22;19847;48.670;9.242;2022-09-02T03:35:06;11.80;99.90
32664;DHT22;19847;48.670;9.242;2022-09-02T03:38:29;11.80;99.90
32664;DHT22;19847;48.670;9.242;2022-09-02T03:41:50;11.70;99.90
32664;DHT22;19847;48.670;9.242;2022-09-02T03:45:12;11.70;99.90
32664;DHT22;19847;48.670;9.242;2022-09-02T03:48:34;11.70;99.90
32664;DHT22;19847;48.670;9.242;2022-09-02T03:51:55;11.70;99.90
32664;DHT22;19847;48.670;9.242;2022-09-02T03:55:18;11.70;99.90
32664;DHT22;19847;48.670;9.242;2022-09-02T03:58:40;11.60;99.90
32664;DHT22;19847;48.670;9.242;2022-09-02T04:02:02;11.60;99.90
32664;DHT22;19847;48.670;9.242;2022-09-02T04:05:24;11.50;99.90
32664;DHT22;19847;48.670;9.242;2022-09-02T04:08:46;11.50;99.90
32664;DHT22;19847;48.670;9.242;2022-09-02T04:12:09;11.40;99.90
32664;DHT22;19847;48.670;9.242;2022-09-02T04:15:31;11.40;99.90
32664;DHT22;19847;48.670;9.242;2022-09-02T04:18:53;11.40;99.90
32664;DHT22;19847;48.670;9.242;2022-09-02T04:22:14;11.50;99.90
32664;DHT22;19847;48.670;9.242;2022-09-02T04:25:37;11.50;99.90
32664;DHT22;19847;48.670;9.242;2022-09-02T04:29:00;11.60;99.90
32664;DHT22;19847;48.670;9.242;2022-09-02T04:32:23;11.70;99.90
32664;DHT22;19847;48.670;9.242;2022-09-02T04:35:45;11.70;99.90
32664;DHT22;19847;48.670;9.242;2022-09-02T04:39:07;11.80;99.90
32664;DHT22;19847;48.670;9.242;2022-09-02T04:42:29;11.80;99.90
32664;DHT22;19847;48.670;9.242;2022-09-02T04:45:52;11.90;99.90
32664;DHT22;19847;48.670;9.242;2022-09-02T04:49:14;11.90;99.90
32664;DHT22;19847;48.670;9.242;2022-09-02T04:52:35;11.90;99.90
32664;DHT22;19847;48.670;9.242;2022-09-02T04:55:57;11.90;99.90
32664;DHT22;19847;48.670;9.242;2022-09-02T04:59:18;11.80;99.90
32664;DHT22;19847;48.670;9.242;2022-09-02T05:02:41;11.80;99.90
32664;DHT22;19847;48.670;9.242;2022-09-02T05:06:04;11.70;99.90
32664;DHT22;19847;48.670;9.242;2022-09-02T05:09:26;11.70;99.90
32664;DHT22;19847;48.670;9.242;2022-09-02T05:12:48;11.70;99.90
32664;DHT22;19847;48.670;9.242;2022-09-02T05:16:13;11.70;99.90
32664;DHT22;19847;48.670;9.242;2022-09-02T05:19:36;11.70;99.90
32664;DHT22;19847;48.670;9.242;2022-09-02T05:22:58;11.70;99.90
32664;DHT22;19847;48.670;9.242;2022-09-02T05:26:19;11.90;99.90
32664;DHT22;19847;48.670;9.242;2022-09-02T05:29:41;11.90;99.90
32664;DHT22;19847;48.670;9.242;2022-09-02T05:33:06;12.10;99.90
32664;DHT22;19847;48.670;9.242;2022-09-02T05:36:31;12.30;99.90
32664;DHT22;19847;48.670;9.242;2022-09-02T05:39:52;12.60;99.90
32664;DHT22;19847;48.670;9.242;2022-09-02T05:43:14;12.90;99.90
32664;DHT22;19847;48.670;9.242;2022-09-02T05:46:35;13.30;99.90
32664;DHT22;19847;48.670;9.242;2022-09-02T05:49:57;13.90;99.90
32664;DHT22;19847;48.670;9.242;2022-09-02T05:53:20;14.70;99.90
32664;DHT22;19847;48.670;9.242;2022-09-02T05:56:42;16.00;99.90
32664;DHT22;19847;48.670;9.242;2022-09-02T06:00:06;17.80;99.90
32664;DHT22;19847;48.670;9.242;2022-09-02T06:03:27;19.90;99.90
32664;DHT22;19847;48.670;9.242;2022-09-02T06:06:49;21.50;99.90
32664;DHT22;19847;48.670;9.242;2022-09-02T06:10:12;22.90;99.90
32664;DHT22;19847;48.670;9.242;2022-09-02T06:13:34;24.10;99.90
32664;DHT22;19847;48.670;9.242;2022-09-02T06:16:57;25.10;99.90
32664;DHT22;19847;48.670;9.242;2022-09-02T06:20:19;26.00;99.10
32664;DHT22;19847;48.670;9.242;2022-09-02T06:23:40;26.10;95.00
32664;DHT22;19847;48.670;9.242;2022-09-02T06:27:03;26.50;94.60
32664;DHT22;19847;48.670;9.242;2022-09-02T06:30:25;26.50;92.90
32664;DHT22;19847;48.670;9.242;2022-09-02T06:33:47;26.90;91.50
32664;DHT22;19847;48.670;9.242;2022-09-02T06:37:11;26.70;91.10
32664;DHT22;19847;48.670;9.242;2022-09-02T06:40:32;26.60;90.10
32664;DHT22;19847;48.670;9.242;2022-09-02T06:43:56;26.10;91.30
32664;DHT22;19847;48.670;9.242;2022-09-02T06:47:20;26.20;90.60
32664;DHT22;19847;48.670;9.242;2022-09-02T06:50:42;26.40;90.10
32664;DHT22;19847;48.670;9.242;2022-09-02T06:54:05;26.60;89.20
32664;DHT22;19847;48.670;9.242;2022-09-02T06:57:27;27.10;89.50
32664;DHT22;19847;48.670;9.242;2022-09-02T07:00:56;27.50;90.30
32664;DHT22;19847;48.670;9.242;2022-09-02T07:04:17;27.40;86.80
32664;DHT22;19847;48.670;9.242;2022-09-02T07:07:40;27.20;86.10
32664;DHT22;19847;48.670;9.242;2022-09-02T07:11:02;26.40;86.80
32664;DHT22;19847;48.670;9.242;2022-09-02T07:14:24;26.20;88.30
32664;DHT22;19847;48.670;9.242;2022-09-02T07:17:47;26.30;87.80
32664;DHT22;19847;48.670;9.242;2022-09-02T07:21:09;26.50;86.90
32664;DHT22;19847;48.670;9.242;2022-09-02T07:24:30;26.70;87.40
32664;DHT22;19847;48.670;9.242;2022-09-02T07:27:52;26.20;86.20
32664;DHT22;19847;48.670;9.242;2022-09-02T07:31:14;26.40;89.90
32664;DHT22;19847;48.670;9.242;2022-09-02T07:34:37;26.90;85.00
32664;DHT22;19847;48.670;9.242;2022-09-02T07:37:59;26.80;87.40
32664;DHT22;19847;48.670;9.242;2022-09-02T07:41:21;27.30;83.70
32664;DHT22;19847;48.670;9.242;2022-09-02T07:44:43;26.80;87.20
32664;DHT22;19847;48.670;9.242;2022-09-02T07:48:05;27.30;85.90
32664;DHT22;19847;48.670;9.242;2022-09-02T07:51:28;27.60;83.90
32664;DHT22;19847;48.670;9.242;2022-09-02T07:54:51;27.40;82.50
32664;DHT22;19847;48.670;9.242;2022-09-02T07:58:13;27.00;82.20
32664;DHT22;19847;48.670;9.242;2022-09-02T08:01:37;26.70;83.20
32664;DHT22;19847;48.670;9.242;2022-09-02T08:04:59;26.80;84.50
32664;DHT22;19847;48.670;9.242;2022-09-02T08:08:22;26.60;84.80
32664;DHT22;19847;48.670;9.242;2022-09-02T08:11:44;26.90;82.60
32664;DHT22;19847;48.670;9.242;2022-09-02T08:15:07;27.30;83.50
32664;DHT22;19847;48.670;9.242;2022-09-02T08:18:29;26.70;84.50
32664;DHT22;19847;48.670;9.242;2022-09-02T08:21:50;26.90;82.40
32664;DHT22;19847;48.670;9.242;2022-09-02T08:25:13;26.40;82.70
32664;DHT22;19847;48.670;9.242;2022-09-02T08:28:35;26.90;82.60
32664;DHT22;19847;48.670;9.242;2022-09-02T08:31:57;27.20;82.20
32664;DHT22;19847;48.670;9.242;2022-09-02T08:35:19;26.80;80.30
32664;DHT22;19847;48.670;9.242;2022-09-02T08:38:41;27.40;80.50
32664;DHT22;19847;48.670;9.242;2022-09-02T08:42:06;27.50;81.60
32664;DHT22;19847;48.670;9.242;2022-09-02T08:45:30;27.60;79.10
32664;DHT22;19847;48.670;9.242;2022-09-02T08:48:54;27.70;79.70
32664;DHT22;19847;48.670;9.242;2022-09-02T08:52:19;27.20;80.20
32664;DHT22;19847;48.670;9.242;2022-09-02T08:55:43;26.80;79.00
32664;DHT22;19847;48.670;9.242;2022-09-02T08:59:07;26.80;80.10
32664;DHT22;19847;48.670;9.242;2022-09-02T09:02:32;27.00;77.00
32664;DHT22;19847;48.670;9.242;2022-09-02T09:05:58;27.10;80.30
32664;DHT22;19847;48.670;9.242;2022-09-02T09:09:23;27.00;80.70
32664;DHT22;19847;48.670;9.242;2022-09-02T09:12:51;27.40;76.20
32664;DHT22;19847;48.670;9.242;2022-09-02T09:16:21;27.00;80.00
32664;DHT22;19847;48.670;9.242;2022-09-02T09:19:47;26.70;79.50
32664;DHT22;19847;48.670;9.242;2022-09-02T09:23:15;27.10;76.70
32664;DHT22;19847;48.670;9.242;2022-09-02T09:26:42;27.10;77.80
32664;DHT22;19847;48.670;9.242;2022-09-02T09:30:04;27.20;75.20
32664;DHT22;19847;48.670;9.242;2022-09-02T09:33:29;27.10;76.10
32664;DHT22;19847;48.670;9.242;2022-09-02T09:36:51;27.60;75.60
32664;DHT22;19847;48.670;9.242;2022-09-02T09:40:20;27.30;71.30
32664;DHT22;19847;48.670;9.242;2022-09-02T09:43:42;26.80;71.70
32664;DHT22;19847;48.670;9.242;2022-09-02T09:47:04;26.10;72.50
32664;DHT22;19847;48.670;9.242;2022-09-02T09:50:27;25.90;72.80
32664;DHT22;19847;48.670;9.242;2022-09-02T09:53:49;25.70;74.30
32664;DHT22;19847;48.670;9.242;2022-09-02T09:57:12;25.90;75.10
32664;DHT22;19847;48.670;9.242;2022-09-02T10:00:36;25.80;75.30
32664;DHT22;19847;48.670;9.242;2022-09-02T10:03:59;26.10;73.10
32664;DHT22;19847;48.670;9.242;2022-09-02T10:07:37;25.90;74.80
32664;DHT22;19847;48.670;9.242;2022-09-02T10:11:00;25.90;74.90
32664;DHT22;19847;48.670;9.242;2022-09-02T10:14:22;25.60;72.10
32664;DHT22;19847;48.670;9.242;2022-09-02T10:17:50;25.40;71.50
32664;DHT22;19847;48.670;9.242;2022-09-02T10:21:22;25.50;73.30
32664;DHT22;19847;48.670;9.242;2022-09-02T10:24:54;25.60;72.30
32664;DHT22;19847;48.670;9.242;2022-09-02T10:28:24;25.30;70.10
32664;DHT22;19847;48.670;9.242;2022-09-02T10:31:48;25.20;72.70
32664;DHT22;19847;48.670;9.242;2022-09-02T10:35:13;24.80;71.40
32664;DHT22;19847;48.670;9.242;2022-09-02T10:38:39;24.60;74.40
32664;DHT22;19847;48.670;9.242;2022-09-02T10:42:06;24.60;74.20
32664;DHT22;19847;48.670;9.242;2022-09-02T10:45:30;24.20;71.80
32664;DHT22;19847;48.670;9.242;2022-09-02T10:48:55;23.90;74.30
32664;DHT22;19847;48.670;9.242;2022-09-02T10:52:27;23.80;76.70
32664;DHT22;19847;48.670;9.242;2022-09-02T10:55:53;23.60;75.00
32664;DHT22;19847;48.670;9.242;2022-09-02T10:59:19;23.20;75.70
32664;DHT22;19847;48.670;9.242;2022-09-02T11:02:44;22.80;76.70
32664;DHT22;19847;48.670;9.242;2022-09-02T11:06:08;22.70;78.00
32664;DHT22;19847;48.670;9.242;2022-09-02T11:09:32;22.50;77.20
32664;DHT22;19847;48.670;9.242;2022-09-02T11:12:56;22.40;78.80
32664;DHT22;19847;48.670;9.242;2022-09-02T11:16:23;22.40;79.10
32664;DHT22;19847;48.670;9.242;2022-09-02T11:19:47;22.30;78.90
32664;DHT22;19847;48.670;9.242;2022-09-02T11:23:12;22.20;78.00
32664;DHT22;19847;48.670;9.242;2022-09-02T11:26:37;22.30;81.10
32664;DHT22;19847;48.670;9.242;2022-09-02T11:30:01;22.40;81.10
32664;DHT22;19847;48.670;9.242;2022-09-02T11:33:25;22.40;79.80
32664;DHT22;19847;48.670;9.242;2022-09-02T11:36:48;22.50;80.10
32664;DHT22;19847;48.670;9.242;2022-09-02T11:40:11;22.40;79.70
32664;DHT22;19847;48.670;9.242;2022-09-02T11:43:54;22.30;79.60
32664;DHT22;19847;48.670;9.242;2022-09-02T11:47:34;22.20;79.20
32664;DHT22;19847;48.670;9.242;2022-09-02T11:51:09;22.30;81.20
32664;DHT22;19847;48.670;9.242;2022-09-02T11:54:37;22.40;80.80
32664;DHT22;19847;48.670;9.242;2022-09-02T11:58:00;22.40;81.30
32664;DHT22;19847;48.670;9.242;2022-09-02T12:01:26;22.50;83.20
32664;DHT22;19847;48.670;9.242;2022-09-02T12:04:49;22.50;83.20
32664;DHT22;19847;48.670;9.242;2022-09-02T12:12:09;22.50;81.10
32664;DHT22;19847;48.670;9.242;2022-09-02T12:16:04;22.50;82.00
32664;DHT22;19847;48.670;9.242;2022-09-02T12:19:47;22.60;80.80
32664;DHT22;19847;48.670;9.242;2022-09-02T12:23:09;22.60;83.00
32664;DHT22;19847;48.670;9.242;2022-09-02T12:33:56;22.50;81.20
32664;DHT22;19847;48.670;9.242;2022-09-02T12:44:46;22.60;81.00
32664;DHT22;19847;48.670;9.242;2022-09-02T12:48:14;22.50;80.50
32664;DHT22;19847;48.670;9.242;2022-09-02T12:51:49;22.50;81.90
32664;DHT22;19847;48.670;9.242;2022-09-02T12:55:14;22.40;80.70
32664;DHT22;19847;48.670;9.242;2022-09-02T12:58:37;22.50;81.50
32664;DHT22;19847;48.670;9.242;2022-09-02T13:05:46;22.70;81.10
32664;DHT22;19847;48.670;9.242;2022-09-02T13:09:24;22.70;83.40
32664;DHT22;19847;48.670;9.242;2022-09-02T13:16:32;22.70;79.10
32664;DHT22;19847;48.670;9.242;2022-09-02T13:20:26;22.80;80.20
32664;DHT22;19847;48.670;9.242;2022-09-02T13:24:14;22.80;82.20
32664;DHT22;19847;48.670;9.242;2022-09-02T13:27:50;22.80;81.10
32664;DHT22;19847;48.670;9.242;2022-09-02T13:31:16;22.80;83.10
32664;DHT22;19847;48.670;9.242;2022-09-02T13:34:40;22.90;84.10
32664;DHT22;19847;48.670;9.242;2022-09-02T13:38:02;23.00;82.30
32664;DHT22;19847;48.670;9.242;2022-09-02T13:41:29;23.10;82.00
32664;DHT22;19847;48.670;9.242;2022-09-02T13:44:52;23.10;81.20
32664;DHT22;19847;48.670;9.242;2022-09-02T13:48:29;23.10;82.20
32664;DHT22;19847;48.670;9.242;2022-09-02T13:51:52;23.10;82.00
32664;DHT22;19847;48.670;9.242;2022-09-02T13:55:14;23.20;81.60
32664;DHT22;19847;48.670;9.242;2022-09-02T13:58:39;23.20;81.80
32664;DHT22;19847;48.670;9.242;2022-09-02T14:02:18;23.30;81.70
32664;DHT22;19847;48.670;9.242;2022-09-02T14:05:41;23.30;81.30
32664;DHT22;19847;48.670;9.242;2022-09-02T14:09:09;23.30;79.90
32664;DHT22;19847;48.670;9.242;2022-09-02T14:12:32;23.30;80.80
32664;DHT22;19847;48.670;9.242;2022-09-02T14:19:32;23.30;81.30
32664;DHT22;19847;48.670;9.242;2022-09-02T14:22:54;23.40;82.70
32664;DHT22;19847;48.670;9.242;2022-09-02T14:26:18;23.40;80.20
32664;DHT22;19847;48.670;9.242;2022-09-02T14:29:41;23.40;79.60
32664;DHT22;19847;48.670;9.242;2022-09-02T14:33:17;23.30;79.60
32664;DHT22;19847;48.670;9.242;2022-09-02T14:36:40;23.30;79.30
32664;DHT22;19847;48.670;9.242;2022-09-02T14:40:06;23.30;78.60
32664;DHT22;19847;48.670;9.242;2022-09-02T14:43:29;23.20;79.90
32664;DHT22;19847;48.670;9.242;2022-09-02T14:46:55;23.20;79.80
32664;DHT22;19847;48.670;9.242;2022-09-02T14:50:18;23.20;79.50
32664;DHT22;19847;48.670;9.242;2022-09-02T14:53:43;23.30;78.30
32664;DHT22;19847;48.670;9.242;2022-09-02T14:57:07;23.20;79.70
32664;DHT22;19847;48.670;9.242;2022-09-02T15:00:39;23.20;80.20
32664;DHT22;19847;48.670;9.242;2022-09-02T15:04:01;23.20;78.80
32664;DHT22;19847;48.670;9.242;2022-09-02T15:07:23;23.30;79.80
32664;DHT22;19847;48.670;9.242;2022-09-02T15:10:46;23.30;80.00
32664;DHT22;19847;48.670;9.242;2022-09-02T15:14:08;23.30;79.90
32664;DHT22;19847;48.670;9.242;2022-09-02T15:17:30;23.30;78.70
32664;DHT22;19847;48.670;9.242;2022-09-02T15:20:51;23.30;79.30
32664;DHT22;19847;48.670;9.242;2022-09-02T15:24:13;23.30;80.60
32664;DHT22;19847;48.670;9.242;2022-09-02T15:27:36;23.30;79.40
32664;DHT22;19847;48.670;9.242;2022-09-02T15:30:58;23.30;77.60
32664;DHT22;19847;48.670;9.242;2022-09-02T15:34:19;23.20;78.80
32664;DHT22;19847;48.670;9.242;2022-09-02T15:37:41;23.10;79.70
32664;DHT22;19847;48.670;9.242;2022-09-02T15:41:12;23.10;79.40
32664;DHT22;19847;48.670;9.242;2022-09-02T15:44:35;23.10;79.60
32664;DHT22;19847;48.670;9.242;2022-09-02T15:47:57;23.20;78.20
32664;DHT22;19847;48.670;9.242;2022-09-02T15:51:19;23.20;78.50
32664;DHT22;19847;48.670;9.242;2022-09-02T15:54:41;23.10;78.00
32664;DHT22;19847;48.670;9.242;2022-09-02T15:58:03;23.00;78.70
32664;DHT22;19847;48.670;9.242;2022-09-02T16:01:27;22.90;78.00
32664;DHT22;19847;48.670;9.242;2022-09-02T16:04:49;22.80;80.60
32664;DHT22;19847;48.670;9.242;2022-09-02T16:08:11;22.80;82.20
32664;DHT22;19847;48.670;9.242;2022-09-02T16:11:32;22.70;81.10
32664;DHT22;19847;48.670;9.242;2022-09-02T16:14:54;22.70;81.40
32664;DHT22;19847;48.670;9.242;2022-09-02T16:18:17;22.60;80.70
32664;DHT22;19847;48.670;9.242;2022-09-02T16:21:38;22.60;82.10
32664;DHT22;19847;48.670;9.242;2022-09-02T16:25:00;22.50;82.90
32664;DHT22;19847;48.670;9.242;2022-09-02T16:28:22;22.40;81.30
32664;DHT22;19847;48.670;9.242;2022-09-02T16:31:44;22.40;83.30
32664;DHT22;19847;48.670;9.242;2022-09-02T16:35:19;22.30;82.70
32664;DHT22;19847;48.670;9.242;2022-09-02T16:38:40;22.10;83.70
32664;DHT22;19847;48.670;9.242;2022-09-02T16:42:02;22.00;84.60
32664;DHT22;19847;48.670;9.242;2022-09-02T16:45:24;21.90;84.80
32664;DHT22;19847;48.670;9.242;2022-09-02T16:48:46;21.90;85.00
32664;DHT22;19847;48.670;9.242;2022-09-02T16:52:09;21.80;85.20
32664;DHT22;19847;48.670;9.242;2022-09-02T16:55:30;21.90;85.20
32664;DHT22;19847;48.670;9.242;2022-09-02T16:58:59;21.90;85.40
32664;DHT22;19847;48.670;9.242;2022-09-02T17:02:23;21.80;84.80
32664;DHT22;19847;48.670;9.242;2022-09-02T17:05:44;21.80;84.90
32664;DHT22;19847;48.670;9.242;2022-09-02T17:09:07;21.70;85.00
32664;DHT22;19847;48.670;9.242;2022-09-02T17:12:29;21.70;85.20
32664;DHT22;19847;48.670;9.242;2022-09-02T17:15:51;21.60;86.90
32664;DHT22;19847;48.670;9.242;2022-09-02T17:19:12;21.40;87.30
32664;DHT22;19847;48.670;9.242;2022-09-02T17:22:34;21.30;87.50
32664;DHT22;19847;48.670;9.242;2022-09-02T17:25:57;21.10;87.30
32664;DHT22;19847;48.670;9.242;2022-09-02T17:29:19;21.00;87.90
32664;DHT22;19847;48.670;9.242;2022-09-02T17:33:01;20.80;88.30
32664;DHT22;19847;48.670;9.242;2022-09-02T17:36:23;20.70;89.60
32664;DHT22;19847;48.670;9.242;2022-09-02T17:39:46;20.50;90.00
32664;DHT22;19847;48.670;9.242;2022-09-02T17:43:09;20.40;90.10
32664;DHT22;19847;48.670;9.242;2022-09-02T17:46:30;20.30;90.20
32664;DHT22;19847;48.670;9.242;2022-09-02T17:49:52;20.20;90.50
32664;DHT22;19847;48.670;9.242;2022-09-02T17:53:13;20.10;90.70
32664;DHT22;19847;48.670;9.242;2022-09-02T17:56:41;20.00;91.00
32664;DHT22;19847;48.670;9.242;2022-09-02T18:00:08;19.90;91.30
32664;DHT22;19847;48.670;9.242;2022-09-02T18:03:33;19.80;91.70
32664;DHT22;19847;48.670;9.242;2022-09-02T18:06:58;19.70;91.80
32664;DHT22;19847;48.670;9.242;2022-09-02T18:10:21;19.60;92.20
32664;DHT22;19847;48.670;9.242;2022-09-02T18:13:45;19.50;92.10
32664;DHT22;19847;48.670;9.242;2022-09-02T18:17:19;19.40;92.30
32664;DHT22;19847;48.670;9.242;2022-09-02T18:20:42;19.30;92.60
32664;DHT22;19847;48.670;9.242;2022-09-02T18:24:05;19.30;92.80
32664;DHT22;19847;48.670;9.242;2022-09-02T18:27:35;19.20;93.00
32664;DHT22;19847;48.670;9.242;2022-09-02T18:31:02;19.10;93.20
32664;DHT22;19847;48.670;9.242;2022-09-02T18:34:32;19.00;93.10
32664;DHT22;19847;48.670;9.242;2022-09-02T18:37:59;19.00;93.30
32664;DHT22;19847;48.670;9.242;2022-09-02T18:41:27;18.90;93.50
32664;DHT22;19847;48.670;9.242;2022-09-02T18:44:58;18.80;93.50
32664;DHT22;19847;48.670;9.242;2022-09-02T18:48:22;18.80;93.70
32664;DHT22;19847;48.670;9.242;2022-09-02T18:51:48;18.70;93.60
32664;DHT22;19847;48.670;9.242;2022-09-02T18:55:13;18.70;93.60
32664;DHT22;19847;48.670;9.242;2022-09-02T18:58:37;18.60;93.80
32664;DHT22;19847;48.670;9.242;2022-09-02T19:02:01;18.60;93.90
32664;DHT22;19847;48.670;9.242;2022-09-02T19:05:26;18.60;93.90
32664;DHT22;19847;48.670;9.242;2022-09-02T19:08:51;18.50;93.80
32664;DHT22;19847;48.670;9.242;2022-09-02T19:12:16;18.50;94.00
32664;DHT22;19847;48.670;9.242;2022-09-02T19:15:37;18.40;94.00
32664;DHT22;19847;48.670;9.242;2022-09-02T19:18:59;18.40;94.20
32664;DHT22;19847;48.670;9.242;2022-09-02T19:22:21;18.40;94.30
32664;DHT22;19847;48.670;9.242;2022-09-02T19:25:45;18.30;94.40
32664;DHT22;19847;48.670;9.242;2022-09-02T19:29:07;18.30;94.80
32664;DHT22;19847;48.670;9.242;2022-09-02T19:32:31;18.20;94.70
32664;DHT22;19847;48.670;9.242;2022-09-02T19:35:53;18.20;95.10
32664;DHT22;19847;48.670;9.242;2022-09-02T19:39:15;18.10;95.10
32664;DHT22;19847;48.670;9.242;2022-09-02T19:42:39;18.10;95.10
32664;DHT22;19847;48.670;9.242;2022-09-02T19:46:01;18.10;95.00
32664;DHT22;19847;48.670;9.242;2022-09-02T19:49:23;18.10;95.20
32664;DHT22;19847;48.670;9.242;2022-09-02T19:52:45;18.00;95.20
32664;DHT22;19847;48.670;9.242;2022-09-02T19:56:08;18.00;95.40
32664;DHT22;19847;48.670;9.242;2022-09-02T19:59:36;18.00;95.40
32664;DHT22;19847;48.670;9.242;2022-09-02T20:02:57;18.00;95.40
32664;DHT22;19847;48.670;9.242;2022-09-02T20:06:19;18.00;95.50
32664;DHT22;19847;48.670;9.242;2022-09-02T20:09:40;18.00;95.60
32664;DHT22;19847;48.670;9.242;2022-09-02T20:13:02;17.90;96.00
32664;DHT22;19847;48.670;9.242;2022-09-02T20:16:26;17.80;96.30
32664;DHT22;19847;48.670;9.242;2022-09-02T20:19:48;17.60;96.80
32664;DHT22;19847;48.670;9.242;2022-09-02T20:23:12;17.60;96.90
32664;DHT22;19847;48.670;9.242;2022-09-02T20:26:39;17.50;96.90
32664;DHT22;19847;48.670;9.242;2022-09-02T20:30:06;17.50;97.00
32664;DHT22;19847;48.670;9.242;2022-09-02T20:33:31;17.40;97.00
32664;DHT22;19847;48.670;9.242;2022-09-02T20:36:57;17.30;97.20
32664;DHT22;19847;48.670;9.242;2022-09-02T20:40:28;17.30;96.90
32664;DHT22;19847;48.670;9.242;2022-09-02T20:44:07;17.20;97.40
32664;DHT22;19847;48.670;9.242;2022-09-02T20:47:47;17.20;97.80
32664;DHT22;19847;48.670;9.242;2022-09-02T20:51:13;17.10;98.20
32664;DHT22;19847;48.670;9.242;2022-09-02T20:54:38;17.10;97.90
32664;DHT22;19847;48.670;9.242;2022-09-02T20:58:01;17.00;98.10
32664;DHT22;19847;48.670;9.242;2022-09-02T21:01:24;17.00;97.60
32664;DHT22;19847;48.670;9.242;2022-09-02T21:04:48;17.00;97.40
32664;DHT22;19847;48.670;9.242;2022-09-02T21:08:13;17.00;97.50
32664;DHT22;19847;48.670;9.242;2022-09-02T21:11:40;17.00;99.20
32664;DHT22;19847;48.670;9.242;2022-09-02T21:15:04;16.90;98.40
32664;DHT22;19847;48.670;9.242;2022-09-02T21:18:28;16.90;99.10
32664;DHT22;19847;48.670;9.242;2022-09-02T21:21:52;16.80;99.60
32664;DHT22;19847;48.670;9.242;2022-09-02T21:25:18;16.70;99.90
32664;DHT22;19847;48.670;9.242;2022-09-02T21:28:42;16.60;99.30
32664;DHT22;19847;48.670;9.242;2022-09-02T21:32:07;16.60;99.10
32664;DHT22;19847;48.670;9.242;2022-09-02T21:35:37;16.60;99.00
32664;DHT22;19847;48.670;9.242;2022-09-02T21:39:02;16.60;99.30
32664;DHT22;19847;48.670;9.242;2022-09-02T21:42:27;16.50;99.90
32664;DHT22;19847;48.670;9.242;2022-09-02T21:45:52;16.40;99.90
32664;DHT22;19847;48.670;9.242;2022-09-02T21:49:20;16.30;99.90
32664;DHT22;19847;48.670;9.242;2022-09-02T21:52:48;16.20;99.90
32664;DHT22;19847;48.670;9.242;2022-09-02T21:56:25;16.10;99.90
32664;DHT22;19847;48.670;9.242;2022-09-02T21:59:56;16.00;99.90